sensor_id;sensor_type;location;lat;lon;timestamp;pressure;altitude;pressure_sealevel;temperature;humidity
76866;BME280;66647;52.124;5.416;2024-03-02T00:02:30;99899.47;;;7.95;86.27
76866;BME280;66647;52.124;5.416;2024-03-02T00:05:04;99903.81;;;7.96;85.90
76866;BME280;66647;52.124;5.416;2024-03-02T00:07:31;99895.28;;;7.98;85.99
76866;BME280;66647;52.124;5.416;2024-03-02T00:09:58;99902.66;;;7.97;86.39
76866;BME280;66647;52.124;5.416;2024-03-02T00:12:27;99899.28;;;8.00;86.33
76866;BME280;66647;52.124;5.416;2024-03-02T00:15:01;99903.63;;;8.01;85.69
76866;BME280;66647;52.124;5.416;2024-03-02T00:17:29;99906.81;;;8.03;84.83
76866;BME280;66647;52.124;5.416;2024-03-02T00:19:59;99926.53;;;8.09;85.56
76866;BME280;66647;52.124;5.416;2024-03-02T00:22:31;99918.91;;;8.15;83.94
76866;BME280;66647;52.124;5.416;2024-03-02T00:25:01;99929.84;;;8.15;85.11
76866;BME280;66647;52.124;5.416;2024-03-02T00:27:33;99930.66;;;8.15;84.67
76866;BME280;66647;52.124;5.416;2024-03-02T00:30:01;99944.75;;;8.17;84.69
76866;BME280;66647;52.124;5.416;2024-03-02T00:32:53;99940.09;;;8.18;85.41
76866;BME280;66647;52.124;5.416;2024-03-02T00:35:58;99974.34;;;8.15;85.03
76866;BME280;66647;52.124;5.416;2024-03-02T00:38:27;99975.47;;;8.14;85.98
76866;BME280;66647;52.124;5.416;2024-03-02T00:41:05;99993.78;;;8.14;85.66
76866;BME280;66647;52.124;5.416;2024-03-02T00:43:41;100009.34;;;8.13;86.48
76866;BME280;66647;52.124;5.416;2024-03-02T00:46:24;100006.84;;;8.08;87.91
76866;BME280;66647;52.124;5.416;2024-03-02T00:51:27;100004.16;;;7.99;88.70
76866;BME280;66647;52.124;5.416;2024-03-02T00:53:59;100005.13;;;7.95;89.43
76866;BME280;66647;52.124;5.416;2024-03-02T00:56:26;100010.78;;;7.90;90.01
76866;BME280;66647;52.124;5.416;2024-03-02T01:05:45;100021.63;;;7.69;93.35
76866;BME280;66647;52.124;5.416;2024-03-02T01:08:12;100016.81;;;7.66;92.91
76866;BME280;66647;52.124;5.416;2024-03-02T01:11:33;100018.13;;;7.60;93.97
76866;BME280;66647;52.124;5.416;2024-03-02T01:14:01;100018.28;;;7.55;95.38
76866;BME280;66647;52.124;5.416;2024-03-02T01:16:28;100028.25;;;7.51;96.36
76866;BME280;66647;52.124;5.416;2024-03-02T01:18:55;100019.13;;;7.47;97.33
76866;BME280;66647;52.124;5.416;2024-03-02T01:21:27;100009.06;;;7.38;98.22
76866;BME280;66647;52.124;5.416;2024-03-02T01:24:02;100017.41;;;7.33;99.15
76866;BME280;66647;52.124;5.416;2024-03-02T01:26:31;100033.94;;;7.28;100.00
76866;BME280;66647;52.124;5.416;2024-03-02T01:28:58;100032.50;;;7.22;99.97
76866;BME280;66647;52.124;5.416;2024-03-02T01:31:27;100036.97;;;7.18;100.00
76866;BME280;66647;52.124;5.416;2024-03-02T01:33:56;100026.72;;;7.15;100.00
76866;BME280;66647;52.124;5.416;2024-03-02T01:36:23;100019.22;;;7.12;100.00
76866;BME280;66647;52.124;5.416;2024-03-02T01:38:52;100021.47;;;7.10;100.00
76866;BME280;66647;52.124;5.416;2024-03-02T01:41:21;100031.88;;;7.08;100.00
76866;BME280;66647;52.124;5.416;2024-03-02T01:43:51;100028.03;;;7.09;100.00
76866;BME280;66647;52.124;5.416;2024-03-02T01:46:33;100035.25;;;7.05;100.00
76866;BME280;66647;52.124;5.416;2024-03-02T01:49:00;100035.56;;;7.03;100.00
76866;BME280;66647;52.124;5.416;2024-03-02T01:51:30;100044.38;;;7.00;100.00
76866;BME280;66647;52.124;5.416;2024-03-02T01:54:21;100045.19;;;7.01;100.00
76866;BME280;66647;52.124;5.416;2024-03-02T01:57:10;100041.50;;;6.97;100.00
76866;BME280;66647;52.124;5.416;2024-03-02T01:59:40;100036.69;;;6.94;100.00
76866;BME280;66647;52.124;5.416;2024-03-02T02:02:07;100040.53;;;6.93;100.00
76866;BME280;66647;52.124;5.416;2024-03-02T02:04:34;100034.94;;;6.89;100.00
76866;BME280;66647;52.124;5.416;2024-03-02T02:07:01;100036.03;;;6.88;100.00
76866;BME280;66647;52.124;5.416;2024-03-02T02:09:28;100022.75;;;6.87;100.00
76866;BME280;66647;52.124;5.416;2024-03-02T02:11:58;100041.34;;;6.85;100.00
76866;BME280;66647;52.124;5.416;2024-03-02T02:14:25;100049.03;;;6.83;100.00
76866;BME280;66647;52.124;5.416;2024-03-02T02:17:06;100049.03;;;6.83;100.00
76866;BME280;66647;52.124;5.416;2024-03-02T02:19:33;100036.06;;;6.80;100.00
76866;BME280;66647;52.124;5.416;2024-03-02T02:21:59;100041.03;;;6.78;100.00
76866;BME280;66647;52.124;5.416;2024-03-02T02:24:29;100044.06;;;6.76;100.00
76866;BME280;66647;52.124;5.416;2024-03-02T02:26:56;100045.50;;;6.73;100.00
76866;BME280;66647;52.124;5.416;2024-03-02T02:29:33;100030.94;;;6.69;100.00
76866;BME280;66647;52.124;5.416;2024-03-02T02:32:04;100025.31;;;6.66;100.00
76866;BME280;66647;52.124;5.416;2024-03-02T02:34:33;100033.47;;;6.66;100.00
76866;BME280;66647;52.124;5.416;2024-03-02T02:40:17;100041.63;;;6.57;100.00
76866;BME280;66647;52.124;5.416;2024-03-02T02:42:45;100048.84;;;6.53;100.00
76866;BME280;66647;52.124;5.416;2024-03-02T02:45:12;100042.59;;;6.53;100.00
76866;BME280;66647;52.124;5.416;2024-03-02T02:47:42;100038.59;;;6.50;100.00
76866;BME280;66647;52.124;5.416;2024-03-02T02:50:11;100051.44;;;6.50;100.00
76866;BME280;66647;52.124;5.416;2024-03-02T02:52:40;100036.53;;;6.47;100.00
76866;BME280;66647;52.124;5.416;2024-03-02T02:55:09;100037.97;;;6.45;100.00
76866;BME280;66647;52.124;5.416;2024-03-02T02:57:42;100041.78;;;6.44;100.00
76866;BME280;66647;52.124;5.416;2024-03-02T03:00:13;100061.81;;;6.39;100.00
76866;BME280;66647;52.124;5.416;2024-03-02T03:03:01;100053.16;;;6.37;100.00
76866;BME280;66647;52.124;5.416;2024-03-02T03:05:31;100052.34;;;6.36;100.00
76866;BME280;66647;52.124;5.416;2024-03-02T03:08:03;100049.94;;;6.35;100.00
76866;BME280;66647;52.124;5.416;2024-03-02T03:10:33;100037.44;;;6.34;100.00
76866;BME280;66647;52.124;5.416;2024-03-02T03:13:00;100044.50;;;6.35;100.00
76866;BME280;66647;52.124;5.416;2024-03-02T03:15:31;100040.81;;;6.31;100.00
76866;BME280;66647;52.124;5.416;2024-03-02T03:18:06;100030.72;;;6.31;100.00
76866;BME280;66647;52.124;5.416;2024-03-02T03:21:02;100048.97;;;6.31;100.00
76866;BME280;66647;52.124;5.416;2024-03-02T03:23:31;100041.91;;;6.30;100.00
76866;BME280;66647;52.124;5.416;2024-03-02T03:26:01;100056.66;;;6.29;100.00
76866;BME280;66647;52.124;5.416;2024-03-02T03:28:28;100047.03;;;6.23;100.00
76866;BME280;66647;52.124;5.416;2024-03-02T03:30:55;100060.13;;;6.21;100.00
76866;BME280;66647;52.124;5.416;2024-03-02T03:33:21;100061.25;;;6.20;100.00
76866;BME280;66647;52.124;5.416;2024-03-02T03:36:00;100066.56;;;6.16;100.00
76866;BME280;66647;52.124;5.416;2024-03-02T03:38:32;100061.91;;;6.17;100.00
76866;BME280;66647;52.124;5.416;2024-03-02T03:40:59;100057.09;;;6.14;100.00
76866;BME280;66647;52.124;5.416;2024-03-02T03:44:04;100058.22;;;6.13;100.00
76866;BME280;66647;52.124;5.416;2024-03-02T03:46:31;100064.16;;;6.15;100.00
76866;BME280;66647;52.124;5.416;2024-03-02T03:49:22;100061.44;;;6.15;100.00
76866;BME280;66647;52.124;5.416;2024-03-02T03:52:03;100072.81;;;6.17;100.00
76866;BME280;66647;52.124;5.416;2024-03-02T03:54:35;100083.84;;;6.20;100.00
76866;BME280;66647;52.124;5.416;2024-03-02T03:57:09;100076.34;;;6.17;100.00
76866;BME280;66647;52.124;5.416;2024-03-02T03:59:39;100069.75;;;6.18;100.00
76866;BME280;66647;52.124;5.416;2024-03-02T04:02:46;100060.94;;;6.21;100.00
76866;BME280;66647;52.124;5.416;2024-03-02T04:05:12;100065.28;;;6.22;100.00
76866;BME280;66647;52.124;5.416;2024-03-02T04:07:40;100069.13;;;6.21;100.00
76866;BME280;66647;52.124;5.416;2024-03-02T04:10:08;100075.84;;;6.24;100.00
76866;BME280;66647;52.124;5.416;2024-03-02T04:12:38;100077.44;;;6.25;100.00
76866;BME280;66647;52.124;5.416;2024-03-02T04:15:06;100078.56;;;6.24;100.00
76866;BME280;66647;52.124;5.416;2024-03-02T04:17:33;100080.50;;;6.23;100.00
76866;BME280;66647;52.124;5.416;2024-03-02T04:20:03;100088.34;;;6.25;100.00
76866;BME280;66647;52.124;5.416;2024-03-02T04:22:34;100088.34;;;6.25;100.00
76866;BME280;66647;52.124;5.416;2024-03-02T04:25:02;100089.94;;;6.26;100.00
76866;BME280;66647;52.124;5.416;2024-03-02T04:27:45;100080.19;;;6.25;100.00
76866;BME280;66647;52.124;5.416;2024-03-02T04:30:12;100080.66;;;6.27;100.00
76866;BME280;66647;52.124;5.416;2024-03-02T04:32:39;100079.84;;;6.26;100.00
76866;BME280;66647;52.124;5.416;2024-03-02T04:35:07;100093.16;;;6.28;100.00
76866;BME280;66647;52.124;5.416;2024-03-02T04:37:35;100081.47;;;6.27;100.00
76866;BME280;66647;52.124;5.416;2024-03-02T04:40:28;100100.69;;;6.31;100.00
76866;BME280;66647;52.124;5.416;2024-03-02T04:43:45;100098.59;;;6.28;100.00
76866;BME280;66647;52.124;5.416;2024-03-02T04:47:00;100102.63;;;6.30;100.00
76866;BME280;66647;52.124;5.416;2024-03-02T04:49:39;100093.16;;;6.28;100.00
76866;BME280;66647;52.124;5.416;2024-03-02T04:56:38;100119.28;;;6.29;100.00
76866;BME280;66647;52.124;5.416;2024-03-02T04:59:39;100119.56;;;6.27;100.00
76866;BME280;66647;52.124;5.416;2024-03-02T05:02:15;100119.09;;;6.25;100.00
76866;BME280;66647;52.124;5.416;2024-03-02T05:04:42;100112.34;;;6.23;100.00
76866;BME280;66647;52.124;5.416;2024-03-02T05:10:24;100116.69;;;6.24;100.00
76866;BME280;66647;52.124;5.416;2024-03-02T05:13:08;100120.03;;;6.21;100.00
76866;BME280;66647;52.124;5.416;2024-03-02T05:15:35;100116.69;;;6.24;100.00
76866;BME280;66647;52.124;5.416;2024-03-02T05:18:02;100128.69;;;6.23;100.00
76866;BME280;66647;52.124;5.416;2024-03-02T05:20:31;100123.25;;;6.23;100.00
76866;BME280;66647;52.124;5.416;2024-03-02T05:22:58;100129.81;;;6.22;100.00
76866;BME280;66647;52.124;5.416;2024-03-02T05:28:44;100129.81;;;6.22;100.00
76866;BME280;66647;52.124;5.416;2024-03-02T05:31:10;100122.75;;;6.21;100.00
76866;BME280;66647;52.124;5.416;2024-03-02T05:33:40;100126.59;;;6.20;100.00
76866;BME280;66647;52.124;5.416;2024-03-02T05:36:07;100141.81;;;6.21;100.00
76866;BME280;66647;52.124;5.416;2024-03-02T05:38:37;100137.16;;;6.21;100.00
76866;BME280;66647;52.124;5.416;2024-03-02T05:41:04;100134.25;;;6.18;100.00
76866;BME280;66647;52.124;5.416;2024-03-02T05:43:33;100129.00;;;6.13;100.00
76866;BME280;66647;52.124;5.416;2024-03-02T05:46:01;100127.50;;;6.06;100.00
76866;BME280;66647;52.124;5.416;2024-03-02T05:48:35;100141.56;;;6.00;100.00
76866;BME280;66647;52.124;5.416;2024-03-02T05:51:02;100133.22;;;5.96;100.00
76866;BME280;66647;52.124;5.416;2024-03-02T05:53:33;100129.69;;;5.96;100.00
76866;BME280;66647;52.124;5.416;2024-03-02T05:56:05;100143.00;;;5.97;100.00
76866;BME280;66647;52.124;5.416;2024-03-02T05:58:38;100133.72;;;5.98;100.00
76866;BME280;66647;52.124;5.416;2024-03-02T06:01:26;100143.97;;;6.01;100.00
76866;BME280;66647;52.124;5.416;2024-03-02T06:07:15;100146.19;;;5.99;100.00
76866;BME280;66647;52.124;5.416;2024-03-02T06:09:42;100156.59;;;5.97;100.00
76866;BME280;66647;52.124;5.416;2024-03-02T06:12:10;100151.78;;;5.94;100.00
76866;BME280;66647;52.124;5.416;2024-03-02T06:17:38;100164.25;;;5.95;100.00
76866;BME280;66647;52.124;5.416;2024-03-02T06:20:05;100152.88;;;5.93;100.00
76866;BME280;66647;52.124;5.416;2024-03-02T06:22:38;100165.38;;;5.94;100.00
76866;BME280;66647;52.124;5.416;2024-03-02T06:25:07;100168.72;;;5.91;100.00
76866;BME280;66647;52.124;5.416;2024-03-02T06:27:38;100170.41;;;5.87;100.00
76866;BME280;66647;52.124;5.416;2024-03-02T06:30:07;100175.84;;;5.87;100.00
76866;BME280;66647;52.124;5.416;2024-03-02T06:32:42;100185.13;;;5.86;100.00
76866;BME280;66647;52.124;5.416;2024-03-02T06:35:37;100188.34;;;5.88;100.00
76866;BME280;66647;52.124;5.416;2024-03-02T06:38:04;100176.38;;;5.89;100.00
76866;BME280;66647;52.124;5.416;2024-03-02T06:43:48;100195.00;;;5.96;100.00
76866;BME280;66647;52.124;5.416;2024-03-02T06:46:15;100186.53;;;5.97;100.00
76866;BME280;66647;52.124;5.416;2024-03-02T06:48:41;100191.34;;;6.00;100.00
76866;BME280;66647;52.124;5.416;2024-03-02T06:51:08;100190.72;;;6.03;100.00
76866;BME280;66647;52.124;5.416;2024-03-02T06:54:07;100184.66;;;6.06;100.00
76866;BME280;66647;52.124;5.416;2024-03-02T06:56:34;100186.28;;;6.07;100.00
76866;BME280;66647;52.124;5.416;2024-03-02T06:59:01;100189.50;;;6.10;100.00
76866;BME280;66647;52.124;5.416;2024-03-02T07:04:43;100188.06;;;6.12;100.00
76866;BME280;66647;52.124;5.416;2024-03-02T07:07:13;100180.69;;;6.13;100.00
76866;BME280;66647;52.124;5.416;2024-03-02T07:09:42;100180.69;;;6.13;100.00
76866;BME280;66647;52.124;5.416;2024-03-02T07:12:11;100193.38;;;6.17;100.00
76866;BME280;66647;52.124;5.416;2024-03-02T07:15:29;100191.31;;;6.23;100.00
76866;BME280;66647;52.124;5.416;2024-03-02T07:22:00;100186.09;;;6.35;100.00
76866;BME280;66647;52.124;5.416;2024-03-02T07:24:43;100188.03;;;6.43;100.00
76866;BME280;66647;52.124;5.416;2024-03-02T07:27:10;100187.13;;;6.56;100.00
76866;BME280;66647;52.124;5.416;2024-03-02T07:29:37;100193.63;;;6.78;100.00
76866;BME280;66647;52.124;5.416;2024-03-02T07:36:09;100207.28;;;6.95;99.47
76866;BME280;66647;52.124;5.416;2024-03-02T07:38:38;100199.75;;;7.18;98.10
76866;BME280;66647;52.124;5.416;2024-03-02T07:41:31;100203.66;;;7.43;96.49
76866;BME280;66647;52.124;5.416;2024-03-02T07:44:03;100205.09;;;7.66;94.89
76866;BME280;66647;52.124;5.416;2024-03-02T07:46:33;100200.91;;;7.60;96.03
76866;BME280;66647;52.124;5.416;2024-03-02T07:49:06;100209.56;;;7.53;93.94
76866;BME280;66647;52.124;5.416;2024-03-02T07:51:43;100213.59;;;7.56;94.43
76866;BME280;66647;52.124;5.416;2024-03-02T07:55:04;100213.91;;;7.63;93.47
76866;BME280;66647;52.124;5.416;2024-03-02T07:58:10;100213.59;;;7.73;94.99
76866;BME280;66647;52.124;5.416;2024-03-02T08:00:39;100205.94;;;8.22;93.69
76866;BME280;66647;52.124;5.416;2024-03-02T08:03:07;100218.00;;;8.21;90.74
76866;BME280;66647;52.124;5.416;2024-03-02T08:05:36;100226.88;;;8.09;92.06
76866;BME280;66647;52.124;5.416;2024-03-02T08:08:04;100232.34;;;8.00;90.72
76866;BME280;66647;52.124;5.416;2024-03-02T08:10:30;100231.81;;;8.16;90.07
76866;BME280;66647;52.124;5.416;2024-03-02T08:12:57;100241.63;;;8.25;88.81
76866;BME280;66647;52.124;5.416;2024-03-02T08:15:24;100238.88;;;8.25;89.54
76866;BME280;66647;52.124;5.416;2024-03-02T08:17:50;100232.13;;;8.40;89.27
76866;BME280;66647;52.124;5.416;2024-03-02T08:20:24;100246.75;;;8.44;89.20
76866;BME280;66647;52.124;5.416;2024-03-02T08:22:52;100233.53;;;8.46;88.81
76866;BME280;66647;52.124;5.416;2024-03-02T08:25:24;100244.81;;;8.83;89.42
76866;BME280;66647;52.124;5.416;2024-03-02T08:27:52;100229.56;;;9.94;86.63
76866;BME280;66647;52.124;5.416;2024-03-02T08:30:18;100227.13;;;11.07;79.83
76866;BME280;66647;52.124;5.416;2024-03-02T08:32:50;100221.69;;;12.16;75.30
76866;BME280;66647;52.124;5.416;2024-03-02T08:35:17;100225.53;;;13.21;69.77
76866;BME280;66647;52.124;5.416;2024-03-02T08:37:48;100217.69;;;13.58;64.70
76866;BME280;66647;52.124;5.416;2024-03-02T08:40:16;100221.81;;;13.68;65.20
76866;BME280;66647;52.124;5.416;2024-03-02T08:42:45;100218.75;;;14.11;62.24
76866;BME280;66647;52.124;5.416;2024-03-02T08:45:15;100221.16;;;13.94;61.58
76866;BME280;66647;52.124;5.416;2024-03-02T08:47:43;100221.88;;;14.33;60.86
76866;BME280;66647;52.124;5.416;2024-03-02T08:50:13;100229.13;;;14.83;59.07
76866;BME280;66647;52.124;5.416;2024-03-02T08:52:42;100215.44;;;14.90;58.64
76866;BME280;66647;52.124;5.416;2024-03-02T08:55:24;100220.59;;;15.18;58.85
76866;BME280;66647;52.124;5.416;2024-03-02T08:58:45;100212.88;;;15.04;57.86
76866;BME280;66647;52.124;5.416;2024-03-02T09:01:14;100216.97;;;15.14;57.52
76866;BME280;66647;52.124;5.416;2024-03-02T09:03:42;100230.59;;;15.30;55.48
76866;BME280;66647;52.124;5.416;2024-03-02T09:06:14;100232.56;;;15.29;55.00
76866;BME280;66647;52.124;5.416;2024-03-02T09:08:43;100226.31;;;15.06;55.66
76866;BME280;66647;52.124;5.416;2024-03-02T09:11:10;100221.16;;;15.31;55.76
76866;BME280;66647;52.124;5.416;2024-03-02T09:13:38;100216.94;;;15.67;54.05
76866;BME280;66647;52.124;5.416;2024-03-02T09:20:37;100220.09;;;16.36;51.74
76866;BME280;66647;52.124;5.416;2024-03-02T09:52:14;100246.69;;;16.85;48.09
76866;BME280;66647;52.124;5.416;2024-03-02T09:55:39;100234.53;;;16.59;46.98
76866;BME280;66647;52.124;5.416;2024-03-02T10:07:13;100243.31;;;16.65;48.48
76866;BME280;66647;52.124;5.416;2024-03-02T11:03:21;100191.88;;;17.95;43.31
76866;BME280;66647;52.124;5.416;2024-03-02T11:07:25;100197.16;;;18.57;44.02
76866;BME280;66647;52.124;5.416;2024-03-02T11:21:29;100205.50;;;19.06;42.03
76866;BME280;66647;52.124;5.416;2024-03-02T11:32:06;100213.41;;;18.44;40.70
76866;BME280;66647;52.124;5.416;2024-03-02T11:43:15;100184.47;;;18.95;38.32
76866;BME280;66647;52.124;5.416;2024-03-02T11:46:44;100194.38;;;18.46;38.44
76866;BME280;66647;52.124;5.416;2024-03-02T11:49:44;100189.59;;;18.32;39.85
76866;BME280;66647;52.124;5.416;2024-03-02T11:53:09;100180.94;;;18.84;39.73
76866;BME280;66647;52.124;5.416;2024-03-02T12:00:18;100164.97;;;19.23;36.79
76866;BME280;66647;52.124;5.416;2024-03-02T12:14:50;100155.41;;;19.31;38.21
76866;BME280;66647;52.124;5.416;2024-03-02T12:34:46;100143.31;;;17.35;41.18
76866;BME280;66647;52.124;5.416;2024-03-02T13:01:17;100112.84;;;16.22;45.87
76866;BME280;66647;52.124;5.416;2024-03-02T13:03:52;100118.69;;;16.13;45.60
76866;BME280;66647;52.124;5.416;2024-03-02T13:07:07;100115.47;;;16.08;45.99
76866;BME280;66647;52.124;5.416;2024-03-02T13:30:11;100112.13;;;15.21;47.42
76866;BME280;66647;52.124;5.416;2024-03-02T13:33:37;100106.66;;;15.28;48.10
76866;BME280;66647;52.124;5.416;2024-03-02T13:37:11;100101.78;;;15.15;48.38
76866;BME280;66647;52.124;5.416;2024-03-02T13:39:38;100109.97;;;15.07;48.64
76866;BME280;66647;52.124;5.416;2024-03-02T13:42:12;100109.31;;;14.88;48.46
76866;BME280;66647;52.124;5.416;2024-03-02T13:45:05;100107.81;;;14.94;48.53
76866;BME280;66647;52.124;5.416;2024-03-02T13:48:10;100114.88;;;14.91;49.36
76866;BME280;66647;52.124;5.416;2024-03-02T13:51:21;100111.81;;;15.00;49.76
76866;BME280;66647;52.124;5.416;2024-03-02T13:54:14;100103.72;;;14.84;49.23
76866;BME280;66647;52.124;5.416;2024-03-02T13:57:26;100102.28;;;14.67;50.56
76866;BME280;66647;52.124;5.416;2024-03-02T14:04:35;100090.81;;;14.65;50.00
76866;BME280;66647;52.124;5.416;2024-03-02T14:10:32;100078.59;;;14.40;50.39
76866;BME280;66647;52.124;5.416;2024-03-02T14:36:45;100031.16;;;14.31;52.06
76866;BME280;66647;52.124;5.416;2024-03-02T14:51:21;100034.25;;;14.26;52.19
76866;BME280;66647;52.124;5.416;2024-03-02T15:22:47;100017.25;;;13.52;53.68
76866;BME280;66647;52.124;5.416;2024-03-02T15:34:34;100029.00;;;13.49;55.27
76866;BME280;66647;52.124;5.416;2024-03-02T15:37:14;100018.69;;;13.45;54.82
76866;BME280;66647;52.124;5.416;2024-03-02T15:51:44;100026.69;;;13.12;56.13
76866;BME280;66647;52.124;5.416;2024-03-02T16:02:13;100007.19;;;13.01;57.29
76866;BME280;66647;52.124;5.416;2024-03-02T16:04:44;100006.72;;;12.96;57.73
76866;BME280;66647;52.124;5.416;2024-03-02T16:12:07;99996.63;;;12.84;59.45
76866;BME280;66647;52.124;5.416;2024-03-02T16:18:50;99988.03;;;12.66;60.18
76866;BME280;66647;52.124;5.416;2024-03-02T16:29:12;99981.41;;;12.52;62.03
76866;BME280;66647;52.124;5.416;2024-03-02T16:31:48;99984.59;;;12.54;62.20
76866;BME280;66647;52.124;5.416;2024-03-02T16:44:29;99978.66;;;12.52;64.20
76866;BME280;66647;52.124;5.416;2024-03-02T16:47:11;99986.09;;;12.51;64.63
76866;BME280;66647;52.124;5.416;2024-03-02T16:52:56;99974.66;;;12.49;65.03
76866;BME280;66647;52.124;5.416;2024-03-02T16:55:54;99977.78;;;12.48;65.04
76866;BME280;66647;52.124;5.416;2024-03-02T16:58:23;99975.66;;;12.41;65.37
76866;BME280;66647;52.124;5.416;2024-03-02T17:01:14;99979.13;;;12.38;65.27
76866;BME280;66647;52.124;5.416;2024-03-02T17:07:13;99984.69;;;12.22;66.17
76866;BME280;66647;52.124;5.416;2024-03-02T17:09:43;99988.84;;;12.16;66.79
76866;BME280;66647;52.124;5.416;2024-03-02T17:12:18;99985.94;;;12.09;67.70
76866;BME280;66647;52.124;5.416;2024-03-02T17:18:45;99995.00;;;11.94;68.63
76866;BME280;66647;52.124;5.416;2024-03-02T17:21:38;100000.78;;;11.89;68.88
76866;BME280;66647;52.124;5.416;2024-03-02T17:24:14;100001.03;;;11.84;69.37
76866;BME280;66647;52.124;5.416;2024-03-02T17:26:43;99996.59;;;11.79;70.30
76866;BME280;66647;52.124;5.416;2024-03-02T17:29:12;100009.88;;;11.77;70.79
76866;BME280;66647;52.124;5.416;2024-03-02T17:32:49;100009.25;;;11.68;70.93
76866;BME280;66647;52.124;5.416;2024-03-02T17:40:11;100019.00;;;11.65;71.21
76866;BME280;66647;52.124;5.416;2024-03-02T17:50:20;100009.66;;;11.70;72.58
76866;BME280;66647;52.124;5.416;2024-03-02T17:56:45;100020.66;;;11.70;72.34
76866;BME280;66647;52.124;5.416;2024-03-02T17:59:14;100031.38;;;11.75;72.39
76866;BME280;66647;52.124;5.416;2024-03-02T18:01:43;100024.28;;;11.74;73.00
76866;BME280;66647;52.124;5.416;2024-03-02T18:04:10;100033.34;;;11.74;73.20
76866;BME280;66647;52.124;5.416;2024-03-02T18:06:55;100041.56;;;11.74;72.91
76866;BME280;66647;52.124;5.416;2024-03-02T18:09:38;100030.94;;;11.73;73.24
76866;BME280;66647;52.124;5.416;2024-03-02T18:12:20;100032.09;;;11.72;73.17
76866;BME280;66647;52.124;5.416;2024-03-02T18:15:50;100029.78;;;11.74;72.99
76866;BME280;66647;52.124;5.416;2024-03-02T18:18:53;100027.03;;;11.74;72.75
76866;BME280;66647;52.124;5.416;2024-03-02T18:22:27;100026.59;;;11.72;73.01
76866;BME280;66647;52.124;5.416;2024-03-02T18:25:15;100033.69;;;11.73;73.54
76866;BME280;66647;52.124;5.416;2024-03-02T18:28:23;100039.19;;;11.73;73.62
76866;BME280;66647;52.124;5.416;2024-03-02T18:30:59;100025.72;;;11.68;73.54
76866;BME280;66647;52.124;5.416;2024-03-02T18:33:49;100027.41;;;11.72;73.44
76866;BME280;66647;52.124;5.416;2024-03-02T18:36:41;100034.03;;;11.71;73.01
76866;BME280;66647;52.124;5.416;2024-03-02T18:42:48;100035.81;;;11.64;73.56
76866;BME280;66647;52.124;5.416;2024-03-02T18:45:15;100028.03;;;11.66;73.63
76866;BME280;66647;52.124;5.416;2024-03-02T18:47:57;100026.44;;;11.65;73.78
76866;BME280;66647;52.124;5.416;2024-03-02T18:51:19;100026.34;;;11.61;73.98
76866;BME280;66647;52.124;5.416;2024-03-02T18:54:24;100028.63;;;11.59;74.11
76866;BME280;66647;52.124;5.416;2024-03-02T18:56:51;100029.00;;;11.58;73.78
76866;BME280;66647;52.124;5.416;2024-03-02T18:59:19;100026.59;;;11.56;74.06
76866;BME280;66647;52.124;5.416;2024-03-02T19:05:21;100026.06;;;11.51;74.25
76866;BME280;66647;52.124;5.416;2024-03-02T19:14:29;100024.09;;;11.51;73.86
76866;BME280;66647;52.124;5.416;2024-03-02T19:17:26;100018.88;;;11.46;73.15
76866;BME280;66647;52.124;5.416;2024-03-02T19:21:14;100025.16;;;11.47;73.55
76866;BME280;66647;52.124;5.416;2024-03-02T19:23:47;100016.91;;;11.47;73.49
76866;BME280;66647;52.124;5.416;2024-03-02T19:26:38;100016.81;;;11.43;72.95
76866;BME280;66647;52.124;5.416;2024-03-02T19:30:23;100009.28;;;11.40;73.46
76866;BME280;66647;52.124;5.416;2024-03-02T19:33:12;100006.91;;;11.38;73.19
76866;BME280;66647;52.124;5.416;2024-03-02T19:35:42;100011.53;;;11.34;73.09
76866;BME280;66647;52.124;5.416;2024-03-02T19:38:29;100006.28;;;11.29;73.00
76866;BME280;66647;52.124;5.416;2024-03-02T19:41:16;100005.81;;;11.27;72.83
76866;BME280;66647;52.124;5.416;2024-03-02T19:43:47;99997.84;;;11.22;73.58
76866;BME280;66647;52.124;5.416;2024-03-02T19:47:00;99998.09;;;11.17;73.29
76866;BME280;66647;52.124;5.416;2024-03-02T19:49:53;99996.03;;;11.14;73.51
76866;BME280;66647;52.124;5.416;2024-03-02T19:52:59;100004.06;;;11.07;73.53
76866;BME280;66647;52.124;5.416;2024-03-02T19:55:49;99993.84;;;11.04;73.48
76866;BME280;66647;52.124;5.416;2024-03-02T19:58:16;100003.09;;;10.99;74.04
76866;BME280;66647;52.124;5.416;2024-03-02T20:01:10;99985.28;;;10.93;74.04
76866;BME280;66647;52.124;5.416;2024-03-02T20:04:06;99987.25;;;10.93;73.98
76866;BME280;66647;52.124;5.416;2024-03-02T20:06:33;99986.00;;;10.90;74.21
76866;BME280;66647;52.124;5.416;2024-03-02T20:09:15;99984.28;;;10.86;74.18
76866;BME280;66647;52.124;5.416;2024-03-02T20:11:49;99981.91;;;10.84;74.37
76866;BME280;66647;52.124;5.416;2024-03-02T20:14:22;99983.38;;;10.82;74.50
76866;BME280;66647;52.124;5.416;2024-03-02T20:16:56;99977.91;;;10.82;74.60
76866;BME280;66647;52.124;5.416;2024-03-02T20:19:23;99972.66;;;10.76;75.10
76866;BME280;66647;52.124;5.416;2024-03-02T20:22:15;99971.75;;;10.72;74.99
76866;BME280;66647;52.124;5.416;2024-03-02T20:25:14;99977.97;;;10.69;74.93
76866;BME280;66647;52.124;5.416;2024-03-02T20:39:17;99976.53;;;10.48;75.79
76866;BME280;66647;52.124;5.416;2024-03-02T20:46:17;99983.53;;;10.33;76.69
76866;BME280;66647;52.124;5.416;2024-03-02T20:48:47;99985.03;;;10.30;76.93
76866;BME280;66647;52.124;5.416;2024-03-02T20:51:17;99983.75;;;10.28;76.60
76866;BME280;66647;52.124;5.416;2024-03-02T20:54:24;99979.19;;;10.20;76.83
76866;BME280;66647;52.124;5.416;2024-03-02T20:57:21;99981.34;;;10.14;77.64
76866;BME280;66647;52.124;5.416;2024-03-02T20:59:59;99975.75;;;10.10;77.88
76866;BME280;66647;52.124;5.416;2024-03-02T21:10:00;99989.47;;;9.98;78.37